sensor_id;sensor_type;location;lat;lon;timestamp;P1;durP1;ratioP1;P2;durP2;ratioP2
25721;SDS011;13578;53.450;15.496;2022-12-11T00:01:55;12.88;;;9.15;;
25721;SDS011;13578;53.450;15.496;2022-12-11T00:04:55;13.27;;;9.77;;
25721;SDS011;13578;53.450;15.496;2022-12-11T00:07:56;12.05;;;9.50;;
25721;SDS011;13578;53.450;15.496;2022-12-11T00:10:57;13.18;;;10.02;;
25721;SDS011;13578;53.450;15.496;2022-12-11T00:13:58;13.45;;;9.52;;
25721;SDS011;13578;53.450;15.496;2022-12-11T00:16:59;15.48;;;9.73;;
25721;SDS011;13578;53.450;15.496;2022-12-11T00:19:59;13.10;;;9.70;;
25721;SDS011;13578;53.450;15.496;2022-12-11T00:23:00;12.38;;;10.15;;
25721;SDS011;13578;53.450;15.496;2022-12-11T00:26:04;12.05;;;9.73;;
25721;SDS011;13578;53.450;15.496;2022-12-11T00:29:06;13.15;;;9.32;;
25721;SDS011;13578;53.450;15.496;2022-12-11T00:32:13;15.00;;;9.45;;
25721;SDS011;13578;53.450;15.496;2022-12-11T00:35:14;12.55;;;9.70;;
25721;SDS011;13578;53.450;15.496;2022-12-11T00:38:15;16.02;;;10.07;;
25721;SDS011;13578;53.450;15.496;2022-12-11T00:41:17;14.38;;;10.00;;
25721;SDS011;13578;53.450;15.496;2022-12-11T00:44:18;15.25;;;10.55;;
25721;SDS011;13578;53.450;15.496;2022-12-11T00:47:19;16.13;;;9.27;;
25721;SDS011;13578;53.450;15.496;2022-12-11T00:50:20;18.58;;;9.57;;
25721;SDS011;13578;53.450;15.496;2022-12-11T00:53:20;14.50;;;9.73;;
25721;SDS011;13578;53.450;15.496;2022-12-11T00:56:21;16.50;;;10.18;;
25721;SDS011;13578;53.450;15.496;2022-12-11T00:59:23;17.38;;;10.82;;
25721;SDS011;13578;53.450;15.496;2022-12-11T01:02:24;15.30;;;10.77;;
25721;SDS011;13578;53.450;15.496;2022-12-11T01:05:25;14.52;;;8.93;;
25721;SDS011;13578;53.450;15.496;2022-12-11T01:08:25;13.98;;;9.02;;
25721;SDS011;13578;53.450;15.496;2022-12-11T01:11:26;15.65;;;10.40;;
25721;SDS011;13578;53.450;15.496;2022-12-11T01:14:29;18.05;;;11.25;;
25721;SDS011;13578;53.450;15.496;2022-12-11T01:17:30;17.10;;;9.75;;
25721;SDS011;13578;53.450;15.496;2022-12-11T01:20:30;14.75;;;10.88;;
25721;SDS011;13578;53.450;15.496;2022-12-11T01:23:31;16.50;;;9.82;;
25721;SDS011;13578;53.450;15.496;2022-12-11T01:26:32;15.40;;;9.50;;
25721;SDS011;13578;53.450;15.496;2022-12-11T01:29:33;18.65;;;10.23;;
25721;SDS011;13578;53.450;15.496;2022-12-11T01:32:34;17.13;;;10.63;;
25721;SDS011;13578;53.450;15.496;2022-12-11T01:35:35;13.05;;;10.63;;
25721;SDS011;13578;53.450;15.496;2022-12-11T01:38:37;15.40;;;10.15;;
25721;SDS011;13578;53.450;15.496;2022-12-11T01:41:38;17.45;;;9.40;;
25721;SDS011;13578;53.450;15.496;2022-12-11T01:47:39;14.57;;;8.95;;
25721;SDS011;13578;53.450;15.496;2022-12-11T01:50:41;14.10;;;9.98;;
25721;SDS011;13578;53.450;15.496;2022-12-11T01:53:48;14.45;;;10.35;;
25721;SDS011;13578;53.450;15.496;2022-12-11T01:56:53;14.45;;;9.23;;
25721;SDS011;13578;53.450;15.496;2022-12-11T01:59:57;13.50;;;9.13;;
25721;SDS011;13578;53.450;15.496;2022-12-11T02:02:57;14.88;;;9.63;;
25721;SDS011;13578;53.450;15.496;2022-12-11T02:05:59;12.32;;;10.73;;
25721;SDS011;13578;53.450;15.496;2022-12-11T02:09:00;16.33;;;10.93;;
25721;SDS011;13578;53.450;15.496;2022-12-11T02:15:51;13.90;;;9.55;;
25721;SDS011;13578;53.450;15.496;2022-12-11T02:19:01;18.98;;;10.45;;
25721;SDS011;13578;53.450;15.496;2022-12-11T02:22:08;18.75;;;10.52;;
25721;SDS011;13578;53.450;15.496;2022-12-11T02:25:19;21.05;;;12.18;;
25721;SDS011;13578;53.450;15.496;2022-12-11T02:28:31;14.30;;;10.88;;
25721;SDS011;13578;53.450;15.496;2022-12-11T02:31:41;17.23;;;11.05;;
25721;SDS011;13578;53.450;15.496;2022-12-11T02:35:09;11.18;;;9.80;;
25721;SDS011;13578;53.450;15.496;2022-12-11T02:38:21;14.43;;;11.23;;
25721;SDS011;13578;53.450;15.496;2022-12-11T02:41:28;13.05;;;9.98;;
25721;SDS011;13578;53.450;15.496;2022-12-11T02:44:29;13.77;;;10.43;;
25721;SDS011;13578;53.450;15.496;2022-12-11T02:47:33;13.00;;;9.80;;
25721;SDS011;13578;53.450;15.496;2022-12-11T02:50:35;17.13;;;9.80;;
25721;SDS011;13578;53.450;15.496;2022-12-11T02:53:41;18.10;;;10.48;;
25721;SDS011;13578;53.450;15.496;2022-12-11T02:56:44;14.45;;;10.43;;
25721;SDS011;13578;53.450;15.496;2022-12-11T02:59:50;13.38;;;9.82;;
25721;SDS011;13578;53.450;15.496;2022-12-11T03:02:50;16.13;;;9.63;;
25721;SDS011;13578;53.450;15.496;2022-12-11T03:05:51;17.08;;;10.88;;
25721;SDS011;13578;53.450;15.496;2022-12-11T03:08:52;19.10;;;12.65;;
25721;SDS011;13578;53.450;15.496;2022-12-11T03:11:53;18.60;;;12.38;;
25721;SDS011;13578;53.450;15.496;2022-12-11T03:14:54;22.33;;;12.77;;
25721;SDS011;13578;53.450;15.496;2022-12-11T03:18:03;14.25;;;10.80;;
25721;SDS011;13578;53.450;15.496;2022-12-11T03:21:17;15.27;;;11.57;;
25721;SDS011;13578;53.450;15.496;2022-12-11T03:30:44;18.00;;;11.32;;
25721;SDS011;13578;53.450;15.496;2022-12-11T03:33:48;14.27;;;11.68;;
25721;SDS011;13578;53.450;15.496;2022-12-11T03:36:56;22.92;;;12.52;;
25721;SDS011;13578;53.450;15.496;2022-12-11T03:39:58;22.05;;;12.95;;
25721;SDS011;13578;53.450;15.496;2022-12-11T03:43:08;20.20;;;12.07;;
25721;SDS011;13578;53.450;15.496;2022-12-11T03:46:10;23.02;;;12.65;;
25721;SDS011;13578;53.450;15.496;2022-12-11T03:49:16;22.88;;;12.32;;
25721;SDS011;13578;53.450;15.496;2022-12-11T03:52:20;18.38;;;12.43;;
25721;SDS011;13578;53.450;15.496;2022-12-11T03:55:22;19.35;;;12.52;;
25721;SDS011;13578;53.450;15.496;2022-12-11T03:58:24;24.95;;;14.30;;
25721;SDS011;13578;53.450;15.496;2022-12-11T04:01:25;22.55;;;14.50;;
25721;SDS011;13578;53.450;15.496;2022-12-11T04:04:25;20.77;;;14.52;;
25721;SDS011;13578;53.450;15.496;2022-12-11T04:07:26;32.00;;;13.05;;
25721;SDS011;13578;53.450;15.496;2022-12-11T04:10:27;17.80;;;12.80;;
25721;SDS011;13578;53.450;15.496;2022-12-11T04:13:28;22.20;;;12.55;;
25721;SDS011;13578;53.450;15.496;2022-12-11T04:16:28;18.42;;;12.07;;
25721;SDS011;13578;53.450;15.496;2022-12-11T04:19:29;17.65;;;12.63;;
25721;SDS011;13578;53.450;15.496;2022-12-11T04:22:48;16.90;;;12.05;;
25721;SDS011;13578;53.450;15.496;2022-12-11T04:26:11;19.30;;;12.85;;
25721;SDS011;13578;53.450;15.496;2022-12-11T04:29:14;19.33;;;13.35;;
25721;SDS011;13578;53.450;15.496;2022-12-11T04:32:15;21.30;;;13.52;;
25721;SDS011;13578;53.450;15.496;2022-12-11T04:35:15;18.13;;;11.43;;
25721;SDS011;13578;53.450;15.496;2022-12-11T04:38:16;19.80;;;11.25;;
25721;SDS011;13578;53.450;15.496;2022-12-11T04:41:16;22.80;;;13.38;;
25721;SDS011;13578;53.450;15.496;2022-12-11T04:44:17;17.08;;;11.98;;
25721;SDS011;13578;53.450;15.496;2022-12-11T04:47:18;17.13;;;11.30;;
25721;SDS011;13578;53.450;15.496;2022-12-11T04:50:18;30.02;;;14.27;;
25721;SDS011;13578;53.450;15.496;2022-12-11T04:53:19;24.13;;;14.27;;
25721;SDS011;13578;53.450;15.496;2022-12-11T04:56:20;19.20;;;13.45;;
25721;SDS011;13578;53.450;15.496;2022-12-11T04:59:20;19.48;;;13.15;;
25721;SDS011;13578;53.450;15.496;2022-12-11T05:02:21;19.40;;;12.85;;
25721;SDS011;13578;53.450;15.496;2022-12-11T05:05:22;13.63;;;10.57;;
25721;SDS011;13578;53.450;15.496;2022-12-11T05:08:22;20.25;;;10.98;;
25721;SDS011;13578;53.450;15.496;2022-12-11T05:11:23;17.38;;;10.93;;
25721;SDS011;13578;53.450;15.496;2022-12-11T05:14:24;15.65;;;11.32;;
25721;SDS011;13578;53.450;15.496;2022-12-11T05:17:25;17.52;;;11.48;;
25721;SDS011;13578;53.450;15.496;2022-12-11T05:20:26;14.55;;;10.52;;
25721;SDS011;13578;53.450;15.496;2022-12-11T05:23:27;15.43;;;10.68;;
25721;SDS011;13578;53.450;15.496;2022-12-11T05:26:28;18.08;;;11.43;;
25721;SDS011;13578;53.450;15.496;2022-12-11T05:29:29;14.05;;;10.93;;
25721;SDS011;13578;53.450;15.496;2022-12-11T05:32:29;15.18;;;10.02;;
25721;SDS011;13578;53.450;15.496;2022-12-11T05:35:30;11.30;;;9.75;;
25721;SDS011;13578;53.450;15.496;2022-12-11T05:38:31;16.45;;;10.32;;
25721;SDS011;13578;53.450;15.496;2022-12-11T05:41:31;18.92;;;11.48;;
25721;SDS011;13578;53.450;15.496;2022-12-11T05:44:32;17.67;;;12.27;;
25721;SDS011;13578;53.450;15.496;2022-12-11T05:47:33;17.13;;;11.77;;
25721;SDS011;13578;53.450;15.496;2022-12-11T05:50:33;19.63;;;11.65;;
25721;SDS011;13578;53.450;15.496;2022-12-11T05:53:35;16.60;;;11.40;;
25721;SDS011;13578;53.450;15.496;2022-12-11T05:56:36;18.25;;;11.38;;
25721;SDS011;13578;53.450;15.496;2022-12-11T05:59:37;15.43;;;11.02;;
25721;SDS011;13578;53.450;15.496;2022-12-11T06:02:38;34.78;;;18.33;;
25721;SDS011;13578;53.450;15.496;2022-12-11T06:05:39;19.27;;;12.43;;
25721;SDS011;13578;53.450;15.496;2022-12-11T06:08:41;16.33;;;10.57;;
25721;SDS011;13578;53.450;15.496;2022-12-11T06:11:42;14.55;;;10.40;;
25721;SDS011;13578;53.450;15.496;2022-12-11T06:14:42;16.05;;;11.15;;
25721;SDS011;13578;53.450;15.496;2022-12-11T06:17:43;15.40;;;11.10;;
25721;SDS011;13578;53.450;15.496;2022-12-11T06:20:43;16.10;;;10.98;;
25721;SDS011;13578;53.450;15.496;2022-12-11T06:23:45;19.73;;;12.00;;
25721;SDS011;13578;53.450;15.496;2022-12-11T06:26:47;23.90;;;11.10;;
25721;SDS011;13578;53.450;15.496;2022-12-11T06:29:47;22.20;;;12.18;;
25721;SDS011;13578;53.450;15.496;2022-12-11T06:32:48;18.10;;;11.15;;
25721;SDS011;13578;53.450;15.496;2022-12-11T06:35:48;14.52;;;10.27;;
25721;SDS011;13578;53.450;15.496;2022-12-11T06:38:49;16.25;;;11.35;;
25721;SDS011;13578;53.450;15.496;2022-12-11T06:41:51;12.70;;;10.13;;
25721;SDS011;13578;53.450;15.496;2022-12-11T06:44:51;14.45;;;10.85;;
25721;SDS011;13578;53.450;15.496;2022-12-11T06:47:52;15.80;;;10.98;;
25721;SDS011;13578;53.450;15.496;2022-12-11T06:50:52;21.70;;;11.65;;
25721;SDS011;13578;53.450;15.496;2022-12-11T06:53:54;20.58;;;11.95;;
25721;SDS011;13578;53.450;15.496;2022-12-11T06:56:56;20.83;;;12.45;;
25721;SDS011;13578;53.450;15.496;2022-12-11T06:59:56;16.33;;;12.90;;
25721;SDS011;13578;53.450;15.496;2022-12-11T07:02:57;24.65;;;12.88;;
25721;SDS011;13578;53.450;15.496;2022-12-11T07:06:00;17.50;;;12.00;;
25721;SDS011;13578;53.450;15.496;2022-12-11T07:09:04;15.75;;;12.05;;
25721;SDS011;13578;53.450;15.496;2022-12-11T07:12:06;12.20;;;10.77;;
25721;SDS011;13578;53.450;15.496;2022-12-11T07:15:07;18.88;;;11.68;;
25721;SDS011;13578;53.450;15.496;2022-12-11T07:18:08;16.92;;;10.25;;
25721;SDS011;13578;53.450;15.496;2022-12-11T07:21:11;17.45;;;10.57;;
25721;SDS011;13578;53.450;15.496;2022-12-11T07:24:12;13.07;;;10.40;;
25721;SDS011;13578;53.450;15.496;2022-12-11T07:27:13;16.30;;;10.27;;
25721;SDS011;13578;53.450;15.496;2022-12-11T07:30:14;17.58;;;11.63;;
25721;SDS011;13578;53.450;15.496;2022-12-11T07:33:15;16.38;;;10.82;;
25721;SDS011;13578;53.450;15.496;2022-12-11T07:36:15;15.15;;;10.32;;
25721;SDS011;13578;53.450;15.496;2022-12-11T07:39:16;15.05;;;10.32;;
25721;SDS011;13578;53.450;15.496;2022-12-11T07:42:16;15.25;;;9.98;;
25721;SDS011;13578;53.450;15.496;2022-12-11T07:45:17;21.63;;;12.10;;
25721;SDS011;13578;53.450;15.496;2022-12-11T07:48:18;21.90;;;12.82;;
25721;SDS011;13578;53.450;15.496;2022-12-11T07:51:29;37.60;;;15.10;;
25721;SDS011;13578;53.450;15.496;2022-12-11T07:54:31;27.92;;;14.00;;
25721;SDS011;13578;53.450;15.496;2022-12-11T07:57:31;50.63;;;21.75;;
25721;SDS011;13578;53.450;15.496;2022-12-11T08:00:32;45.80;;;17.85;;
25721;SDS011;13578;53.450;15.496;2022-12-11T08:03:32;35.17;;;17.27;;
25721;SDS011;13578;53.450;15.496;2022-12-11T08:06:34;95.10;;;33.65;;
25721;SDS011;13578;53.450;15.496;2022-12-11T08:09:36;113.20;;;42.65;;
25721;SDS011;13578;53.450;15.496;2022-12-11T08:12:37;79.90;;;33.75;;
25721;SDS011;13578;53.450;15.496;2022-12-11T08:15:37;37.00;;;19.95;;
25721;SDS011;13578;53.450;15.496;2022-12-11T08:18:38;25.35;;;17.27;;
25721;SDS011;13578;53.450;15.496;2022-12-11T08:21:40;33.05;;;17.77;;
25721;SDS011;13578;53.450;15.496;2022-12-11T08:24:41;33.05;;;19.23;;
25721;SDS011;13578;53.450;15.496;2022-12-11T08:27:42;49.63;;;22.02;;
25721;SDS011;13578;53.450;15.496;2022-12-11T08:30:42;32.30;;;18.30;;
25721;SDS011;13578;53.450;15.496;2022-12-11T08:33:43;22.33;;;15.00;;
25721;SDS011;13578;53.450;15.496;2022-12-11T08:36:44;31.42;;;16.50;;
25721;SDS011;13578;53.450;15.496;2022-12-11T08:39:45;24.23;;;15.13;;
25721;SDS011;13578;53.450;15.496;2022-12-11T08:42:46;30.85;;;15.82;;
25721;SDS011;13578;53.450;15.496;2022-12-11T08:45:46;28.05;;;15.73;;
25721;SDS011;13578;53.450;15.496;2022-12-11T08:48:47;36.65;;;16.38;;
25721;SDS011;13578;53.450;15.496;2022-12-11T08:51:47;29.30;;;14.85;;
25721;SDS011;13578;53.450;15.496;2022-12-11T08:54:48;24.60;;;15.15;;
25721;SDS011;13578;53.450;15.496;2022-12-11T08:57:48;29.55;;;15.45;;
25721;SDS011;13578;53.450;15.496;2022-12-11T09:00:49;27.48;;;15.00;;
25721;SDS011;13578;53.450;15.496;2022-12-11T09:03:50;18.45;;;12.85;;
25721;SDS011;13578;53.450;15.496;2022-12-11T09:06:52;22.67;;;12.80;;
25721;SDS011;13578;53.450;15.496;2022-12-11T09:09:53;22.38;;;12.85;;
25721;SDS011;13578;53.450;15.496;2022-12-11T09:12:54;26.85;;;15.93;;
25721;SDS011;13578;53.450;15.496;2022-12-11T09:15:54;32.63;;;16.00;;
25721;SDS011;13578;53.450;15.496;2022-12-11T09:18:56;34.03;;;17.02;;
25721;SDS011;13578;53.450;15.496;2022-12-11T09:21:58;22.67;;;13.30;;
25721;SDS011;13578;53.450;15.496;2022-12-11T09:24:58;22.65;;;13.25;;
25721;SDS011;13578;53.450;15.496;2022-12-11T09:27:59;16.80;;;11.85;;
25721;SDS011;13578;53.450;15.496;2022-12-11T09:31:00;22.75;;;14.88;;
25721;SDS011;13578;53.450;15.496;2022-12-11T09:34:02;32.47;;;15.30;;
25721;SDS011;13578;53.450;15.496;2022-12-11T09:37:04;22.23;;;13.93;;
25721;SDS011;13578;53.450;15.496;2022-12-11T09:40:05;24.63;;;15.30;;
25721;SDS011;13578;53.450;15.496;2022-12-11T09:43:08;16.23;;;12.27;;
25721;SDS011;13578;53.450;15.496;2022-12-11T09:46:43;18.63;;;12.07;;
25721;SDS011;13578;53.450;15.496;2022-12-11T09:49:45;26.30;;;13.98;;
25721;SDS011;13578;53.450;15.496;2022-12-11T09:56:15;18.33;;;11.57;;
25721;SDS011;13578;53.450;15.496;2022-12-11T10:06:20;25.70;;;13.45;;
25721;SDS011;13578;53.450;15.496;2022-12-11T10:09:27;18.23;;;11.57;;
25721;SDS011;13578;53.450;15.496;2022-12-11T10:12:53;25.73;;;14.95;;
25721;SDS011;13578;53.450;15.496;2022-12-11T10:19:29;26.92;;;14.82;;
25721;SDS011;13578;53.450;15.496;2022-12-11T10:22:32;26.08;;;14.30;;
25721;SDS011;13578;53.450;15.496;2022-12-11T10:25:40;29.48;;;15.43;;
25721;SDS011;13578;53.450;15.496;2022-12-11T10:28:45;30.20;;;14.48;;
25721;SDS011;13578;53.450;15.496;2022-12-11T10:31:53;24.90;;;13.90;;
25721;SDS011;13578;53.450;15.496;2022-12-11T10:35:00;23.80;;;13.73;;
25721;SDS011;13578;53.450;15.496;2022-12-11T10:38:11;35.00;;;16.20;;
25721;SDS011;13578;53.450;15.496;2022-12-11T10:44:38;19.63;;;12.63;;
25721;SDS011;13578;53.450;15.496;2022-12-11T10:47:38;23.60;;;13.27;;
25721;SDS011;13578;53.450;15.496;2022-12-11T10:50:39;31.02;;;16.63;;
25721;SDS011;13578;53.450;15.496;2022-12-11T10:53:48;26.88;;;12.77;;
25721;SDS011;13578;53.450;15.496;2022-12-11T10:56:50;54.03;;;20.48;;
25721;SDS011;13578;53.450;15.496;2022-12-11T10:59:51;50.63;;;23.73;;
25721;SDS011;13578;53.450;15.496;2022-12-11T11:02:52;96.10;;;39.53;;
25721;SDS011;13578;53.450;15.496;2022-12-11T11:06:06;37.60;;;20.45;;
25721;SDS011;13578;53.450;15.496;2022-12-11T11:09:30;30.48;;;16.05;;
25721;SDS011;13578;53.450;15.496;2022-12-11T11:12:38;40.83;;;16.90;;
25721;SDS011;13578;53.450;15.496;2022-12-11T11:15:44;27.17;;;15.65;;
25721;SDS011;13578;53.450;15.496;2022-12-11T11:18:54;31.27;;;14.95;;
25721;SDS011;13578;53.450;15.496;2022-12-11T11:21:58;23.48;;;14.95;;
25721;SDS011;13578;53.450;15.496;2022-12-11T11:25:02;25.60;;;14.82;;
25721;SDS011;13578;53.450;15.496;2022-12-11T11:28:05;33.00;;;15.65;;
25721;SDS011;13578;53.450;15.496;2022-12-11T11:31:12;27.10;;;14.38;;
25721;SDS011;13578;53.450;15.496;2022-12-11T11:34:15;30.10;;;14.15;;
25721;SDS011;13578;53.450;15.496;2022-12-11T11:37:22;35.03;;;17.17;;
25721;SDS011;13578;53.450;15.496;2022-12-11T11:40:24;28.52;;;15.00;;
25721;SDS011;13578;53.450;15.496;2022-12-11T11:43:44;24.23;;;14.65;;
25721;SDS011;13578;53.450;15.496;2022-12-11T11:46:58;35.97;;;14.15;;
25721;SDS011;13578;53.450;15.496;2022-12-11T11:50:05;26.17;;;13.95;;
25721;SDS011;13578;53.450;15.496;2022-12-11T11:53:28;25.10;;;13.60;;
25721;SDS011;13578;53.450;15.496;2022-12-11T11:56:37;26.42;;;14.25;;
25721;SDS011;13578;53.450;15.496;2022-12-11T11:59:40;27.33;;;13.25;;
25721;SDS011;13578;53.450;15.496;2022-12-11T12:02:53;23.95;;;13.48;;
25721;SDS011;13578;53.450;15.496;2022-12-11T12:09:29;21.77;;;14.02;;
25721;SDS011;13578;53.450;15.496;2022-12-11T12:15:56;27.80;;;14.40;;
25721;SDS011;13578;53.450;15.496;2022-12-11T12:19:45;24.85;;;14.65;;
25721;SDS011;13578;53.450;15.496;2022-12-11T12:32:15;28.15;;;14.52;;
25721;SDS011;13578;53.450;15.496;2022-12-11T12:41:56;34.88;;;16.65;;
25721;SDS011;13578;53.450;15.496;2022-12-11T12:48:15;36.03;;;18.08;;
25721;SDS011;13578;53.450;15.496;2022-12-11T12:51:16;26.45;;;15.73;;
25721;SDS011;13578;53.450;15.496;2022-12-11T12:54:18;28.60;;;15.73;;
25721;SDS011;13578;53.450;15.496;2022-12-11T12:57:20;32.38;;;17.80;;
25721;SDS011;13578;53.450;15.496;2022-12-11T13:00:24;36.33;;;16.65;;
25721;SDS011;13578;53.450;15.496;2022-12-11T13:03:31;36.13;;;16.08;;
25721;SDS011;13578;53.450;15.496;2022-12-11T13:06:35;31.67;;;15.23;;
25721;SDS011;13578;53.450;15.496;2022-12-11T13:09:38;30.98;;;16.60;;
25721;SDS011;13578;53.450;15.496;2022-12-11T13:12:40;34.20;;;15.55;;
25721;SDS011;13578;53.450;15.496;2022-12-11T13:15:43;40.97;;;17.02;;
25721;SDS011;13578;53.450;15.496;2022-12-11T13:18:44;51.75;;;21.67;;
25721;SDS011;13578;53.450;15.496;2022-12-11T13:25:19;31.80;;;17.67;;
25721;SDS011;13578;53.450;15.496;2022-12-11T13:28:27;40.08;;;19.33;;
25721;SDS011;13578;53.450;15.496;2022-12-11T13:31:32;34.33;;;16.88;;
25721;SDS011;13578;53.450;15.496;2022-12-11T13:34:35;38.72;;;17.42;;
25721;SDS011;13578;53.450;15.496;2022-12-11T13:37:39;39.40;;;18.70;;
25721;SDS011;13578;53.450;15.496;2022-12-11T13:40:42;47.40;;;18.20;;
25721;SDS011;13578;53.450;15.496;2022-12-11T13:43:45;32.92;;;17.58;;
25721;SDS011;13578;53.450;15.496;2022-12-11T13:46:48;33.97;;;16.38;;
25721;SDS011;13578;53.450;15.496;2022-12-11T13:49:53;34.90;;;18.98;;
25721;SDS011;13578;53.450;15.496;2022-12-11T13:52:59;32.72;;;16.30;;
25721;SDS011;13578;53.450;15.496;2022-12-11T13:56:02;37.88;;;17.83;;
25721;SDS011;13578;53.450;15.496;2022-12-11T13:59:16;36.22;;;17.58;;
25721;SDS011;13578;53.450;15.496;2022-12-11T14:02:24;46.58;;;16.13;;
25721;SDS011;13578;53.450;15.496;2022-12-11T14:05:28;38.58;;;17.80;;
25721;SDS011;13578;53.450;15.496;2022-12-11T14:08:33;34.28;;;16.98;;
25721;SDS011;13578;53.450;15.496;2022-12-11T14:11:36;30.65;;;16.02;;
25721;SDS011;13578;53.450;15.496;2022-12-11T14:14:41;32.00;;;16.52;;
25721;SDS011;13578;53.450;15.496;2022-12-11T14:17:44;35.63;;;17.20;;
25721;SDS011;13578;53.450;15.496;2022-12-11T14:20:51;32.95;;;17.10;;
25721;SDS011;13578;53.450;15.496;2022-12-11T14:23:54;31.63;;;15.60;;
25721;SDS011;13578;53.450;15.496;2022-12-11T14:26:57;26.85;;;14.98;;
25721;SDS011;13578;53.450;15.496;2022-12-11T14:30:07;27.60;;;14.63;;
25721;SDS011;13578;53.450;15.496;2022-12-11T14:33:09;28.30;;;14.57;;
25721;SDS011;13578;53.450;15.496;2022-12-11T14:36:10;41.38;;;16.58;;
25721;SDS011;13578;53.450;15.496;2022-12-11T14:39:25;44.40;;;18.10;;
25721;SDS011;13578;53.450;15.496;2022-12-11T14:42:35;26.70;;;16.55;;
25721;SDS011;13578;53.450;15.496;2022-12-11T14:45:43;33.45;;;16.85;;
25721;SDS011;13578;53.450;15.496;2022-12-11T14:48:51;28.45;;;14.50;;
25721;SDS011;13578;53.450;15.496;2022-12-11T14:51:57;41.13;;;16.85;;
25721;SDS011;13578;53.450;15.496;2022-12-11T14:55:00;35.47;;;16.10;;
25721;SDS011;13578;53.450;15.496;2022-12-11T14:58:16;38.80;;;17.15;;
25721;SDS011;13578;53.450;15.496;2022-12-11T15:01:31;38.97;;;17.45;;
25721;SDS011;13578;53.450;15.496;2022-12-11T15:04:33;36.90;;;18.00;;
25721;SDS011;13578;53.450;15.496;2022-12-11T15:07:34;32.95;;;17.08;;
25721;SDS011;13578;53.450;15.496;2022-12-11T15:10:36;36.70;;;18.25;;
25721;SDS011;13578;53.450;15.496;2022-12-11T15:14:01;38.83;;;19.35;;
25721;SDS011;13578;53.450;15.496;2022-12-11T15:17:01;47.30;;;18.25;;
25721;SDS011;13578;53.450;15.496;2022-12-11T15:20:05;39.83;;;17.55;;
25721;SDS011;13578;53.450;15.496;2022-12-11T15:26:08;56.65;;;23.67;;
25721;SDS011;13578;53.450;15.496;2022-12-11T15:32:39;73.32;;;30.05;;
25721;SDS011;13578;53.450;15.496;2022-12-11T15:35:50;92.13;;;46.88;;
25721;SDS011;13578;53.450;15.496;2022-12-11T15:38:53;64.93;;;32.70;;
25721;SDS011;13578;53.450;15.496;2022-12-11T15:41:54;55.90;;;28.65;;
25721;SDS011;13578;53.450;15.496;2022-12-11T15:44:55;27.65;;;16.38;;
25721;SDS011;13578;53.450;15.496;2022-12-11T15:47:56;23.42;;;13.50;;
25721;SDS011;13578;53.450;15.496;2022-12-11T15:50:58;30.80;;;14.32;;
25721;SDS011;13578;53.450;15.496;2022-12-11T15:53:59;31.73;;;14.43;;
25721;SDS011;13578;53.450;15.496;2022-12-11T15:57:01;23.63;;;13.45;;
25721;SDS011;13578;53.450;15.496;2022-12-11T16:00:05;26.40;;;14.38;;
25721;SDS011;13578;53.450;15.496;2022-12-11T16:03:08;26.52;;;14.98;;
25721;SDS011;13578;53.450;15.496;2022-12-11T16:06:11;28.67;;;13.40;;
25721;SDS011;13578;53.450;15.496;2022-12-11T16:09:13;28.15;;;14.55;;
25721;SDS011;13578;53.450;15.496;2022-12-11T16:12:13;31.90;;;17.55;;
25721;SDS011;13578;53.450;15.496;2022-12-11T16:15:15;39.33;;;21.88;;
25721;SDS011;13578;53.450;15.496;2022-12-11T16:18:17;29.88;;;17.00;;
25721;SDS011;13578;53.450;15.496;2022-12-11T16:21:20;32.97;;;16.52;;
25721;SDS011;13578;53.450;15.496;2022-12-11T16:24:21;28.83;;;15.65;;
25721;SDS011;13578;53.450;15.496;2022-12-11T16:27:21;32.13;;;15.18;;
25721;SDS011;13578;53.450;15.496;2022-12-11T16:30:25;37.15;;;17.33;;
25721;SDS011;13578;53.450;15.496;2022-12-11T16:33:27;42.80;;;16.73;;
25721;SDS011;13578;53.450;15.496;2022-12-11T16:36:28;51.20;;;20.02;;
25721;SDS011;13578;53.450;15.496;2022-12-11T16:39:28;64.22;;;23.15;;
25721;SDS011;13578;53.450;15.496;2022-12-11T16:42:30;38.30;;;19.95;;
25721;SDS011;13578;53.450;15.496;2022-12-11T16:45:30;31.63;;;15.73;;
25721;SDS011;13578;53.450;15.496;2022-12-11T16:48:31;41.22;;;17.50;;
25721;SDS011;13578;53.450;15.496;2022-12-11T16:51:32;44.08;;;19.77;;
25721;SDS011;13578;53.450;15.496;2022-12-11T16:54:33;44.25;;;23.48;;
25721;SDS011;13578;53.450;15.496;2022-12-11T16:57:34;39.28;;;20.85;;
25721;SDS011;13578;53.450;15.496;2022-12-11T17:00:35;48.53;;;23.38;;
25721;SDS011;13578;53.450;15.496;2022-12-11T17:03:36;35.20;;;19.08;;
25721;SDS011;13578;53.450;15.496;2022-12-11T17:06:37;29.00;;;14.10;;
25721;SDS011;13578;53.450;15.496;2022-12-11T17:09:37;34.22;;;15.32;;
25721;SDS011;13578;53.450;15.496;2022-12-11T17:12:38;36.90;;;15.68;;
25721;SDS011;13578;53.450;15.496;2022-12-11T17:15:42;34.60;;;16.80;;
25721;SDS011;13578;53.450;15.496;2022-12-11T17:18:43;42.65;;;18.73;;
25721;SDS011;13578;53.450;15.496;2022-12-11T17:21:44;33.17;;;16.80;;
25721;SDS011;13578;53.450;15.496;2022-12-11T17:24:48;32.10;;;17.75;;
25721;SDS011;13578;53.450;15.496;2022-12-11T17:27:48;59.67;;;28.63;;
25721;SDS011;13578;53.450;15.496;2022-12-11T17:30:49;46.42;;;23.08;;
25721;SDS011;13578;53.450;15.496;2022-12-11T17:33:51;33.15;;;18.00;;
25721;SDS011;13578;53.450;15.496;2022-12-11T17:36:53;34.15;;;17.25;;
25721;SDS011;13578;53.450;15.496;2022-12-11T17:39:53;31.35;;;16.30;;
25721;SDS011;13578;53.450;15.496;2022-12-11T17:42:54;30.80;;;15.13;;
25721;SDS011;13578;53.450;15.496;2022-12-11T17:45:55;31.23;;;16.08;;
25721;SDS011;13578;53.450;15.496;2022-12-11T17:48:56;35.80;;;15.73;;
25721;SDS011;13578;53.450;15.496;2022-12-11T17:51:59;29.85;;;15.55;;
25721;SDS011;13578;53.450;15.496;2022-12-11T17:54:59;26.67;;;14.75;;
25721;SDS011;13578;53.450;15.496;2022-12-11T17:58:00;25.45;;;15.63;;
25721;SDS011;13578;53.450;15.496;2022-12-11T18:01:05;35.75;;;14.85;;
25721;SDS011;13578;53.450;15.496;2022-12-11T18:04:07;32.92;;;15.13;;
25721;SDS011;13578;53.450;15.496;2022-12-11T18:07:07;38.35;;;16.05;;
25721;SDS011;13578;53.450;15.496;2022-12-11T18:10:08;32.28;;;15.35;;
25721;SDS011;13578;53.450;15.496;2022-12-11T18:13:09;31.70;;;14.50;;
25721;SDS011;13578;53.450;15.496;2022-12-11T18:16:14;31.88;;;15.52;;
25721;SDS011;13578;53.450;15.496;2022-12-11T18:19:17;32.35;;;16.05;;
25721;SDS011;13578;53.450;15.496;2022-12-11T18:22:19;24.92;;;14.35;;
25721;SDS011;13578;53.450;15.496;2022-12-11T18:25:19;34.85;;;15.70;;
25721;SDS011;13578;53.450;15.496;2022-12-11T18:28:20;33.15;;;15.00;;
25721;SDS011;13578;53.450;15.496;2022-12-11T18:31:21;26.23;;;14.55;;
25721;SDS011;13578;53.450;15.496;2022-12-11T18:34:22;38.05;;;15.82;;
25721;SDS011;13578;53.450;15.496;2022-12-11T18:37:23;29.88;;;14.90;;
25721;SDS011;13578;53.450;15.496;2022-12-11T18:40:23;27.83;;;15.27;;
25721;SDS011;13578;53.450;15.496;2022-12-11T18:43:24;33.00;;;17.23;;
25721;SDS011;13578;53.450;15.496;2022-12-11T18:46:25;45.20;;;18.67;;